Time;durP1;ratioP1;P1;durP2;ratioP2;P2;SDS_P1;SDS_P2;PMS_P1;PMS_P2;Temp;Humidity;BMP_temperature;BMP_pressure;BME280_temperature;BME280_humidity;BME280_pressure;Samples;Min_cycle;Max_cycle;Signal;HPM_P1;HPM_P2
2021/12/12 00:01:54;;;;;;;11.15;4.03;;;4.40;99.90;;;;;;5071745;28;20200;-49
2021/12/12 00:04:31;;;;;;;16.60;4.97;;;4.40;99.90;;;;;;5072094;28;20636;-48
2021/12/12 00:06:58;;;;;;;8.32;3.70;;;4.40;99.90;;;;;;5072071;28;20621;-46
2021/12/12 00:09:31;;;;;;;10.35;4.40;;;4.40;99.90;;;;;;5072126;28;20619;-48
2021/12/12 00:12:00;;;;;;;10.10;4.72;;;4.40;99.90;;;;;;5070587;28;20513;-48
2021/12/12 00:14:32;;;;;;;11.77;4.55;;;4.40;99.90;;;;;;5072364;28;20158;-48
2021/12/12 00:16:58;;;;;;;9.20;4.03;;;4.40;99.90;;;;;;5071910;28;20162;-47
2021/12/12 00:19:26;;;;;;;11.18;4.90;;;4.40;99.90;;;;;;5072271;28;20259;-47
2021/12/12 00:21:58;;;;;;;14.43;3.80;;;4.30;99.90;;;;;;5072326;28;20173;-47
2021/12/12 00:24:24;;;;;;;11.38;4.20;;;4.30;99.90;;;;;;5072593;28;20554;-47
2021/12/12 00:26:52;;;;;;;12.48;5.18;;;4.30;99.90;;;;;;5071845;28;20186;-48
2021/12/12 00:29:20;;;;;;;15.30;3.97;;;4.30;99.90;;;;;;5071720;28;20162;-47
2021/12/12 00:31:48;;;;;;;8.45;3.83;;;4.30;99.90;;;;;;5071762;28;20162;-46
2021/12/12 00:34:14;;;;;;;9.93;3.92;;;4.20;99.90;;;;;;5071729;28;20158;-46
2021/12/12 00:36:41;;;;;;;5.90;4.00;;;4.30;99.90;;;;;;5070420;28;20618;-44
2021/12/12 00:39:14;;;;;;;6.72;3.90;;;4.30;99.90;;;;;;5070593;28;20268;-45
2021/12/12 00:42:05;;;;;;;9.55;3.95;;;4.30;99.90;;;;;;5071735;28;20641;-43
2021/12/12 00:44:33;;;;;;;9.50;3.83;;;4.30;99.90;;;;;;5071618;28;20173;-46
2021/12/12 00:47:01;;;;;;;11.27;3.75;;;4.30;99.90;;;;;;5071672;28;20652;-45
2021/12/12 00:49:29;;;;;;;11.15;4.40;;;4.30;99.90;;;;;;5071354;28;20216;-44
2021/12/12 00:51:55;;;;;;;10.30;4.07;;;4.30;99.90;;;;;;5071897;28;20513;-46
2021/12/12 00:54:22;;;;;;;5.30;3.78;;;4.30;99.90;;;;;;5071887;28;20188;-45
2021/12/12 00:56:48;;;;;;;4.75;3.20;;;4.30;99.90;;;;;;5071481;28;20162;-45
2021/12/12 00:59:14;;;;;;;11.88;5.05;;;4.30;99.90;;;;;;5070215;28;20189;-47
2021/12/12 01:01:46;;;;;;;6.50;4.00;;;4.30;99.90;;;;;;5071474;28;20700;-45
2021/12/12 01:04:19;;;;;;;9.75;3.60;;;4.40;99.90;;;;;;5069794;28;20257;-46
2021/12/12 01:06:47;;;;;;;11.43;4.18;;;4.40;99.90;;;;;;5071414;28;20177;-47
2021/12/12 01:09:18;;;;;;;5.88;3.45;;;4.40;99.90;;;;;;5071253;28;20242;-45
2021/12/12 01:11:48;;;;;;;5.93;3.25;;;4.40;99.90;;;;;;5071767;28;20174;-46
2021/12/12 01:14:17;;;;;;;11.38;3.90;;;4.40;99.90;;;;;;5075135;28;20268;-45
2021/12/12 01:16:58;;;;;;;5.93;2.92;;;4.40;99.90;;;;;;5075091;28;20166;-46
2021/12/12 01:19:37;;;;;;;6.15;3.33;;;4.40;99.90;;;;;;5075577;28;20185;-44
2021/12/12 01:22:10;;;;;;;12.30;4.15;;;4.40;99.90;;;;;;5074918;28;20169;-45
2021/12/12 01:24:40;;;;;;;7.38;3.40;;;4.40;99.90;;;;;;5074897;28;20215;-44
2021/12/12 01:27:07;;;;;;;7.10;3.70;;;4.50;99.90;;;;;;5075232;28;20253;-44
2021/12/12 01:29:34;;;;;;;7.78;3.47;;;4.50;99.90;;;;;;5074681;28;20259;-47
2021/12/12 01:32:03;;;;;;;7.18;3.90;;;4.50;99.90;;;;;;5075027;28;20174;-46
2021/12/12 01:34:31;;;;;;;9.05;3.15;;;4.50;99.90;;;;;;5075020;28;20261;-44
2021/12/12 01:37:34;;;;;;;6.47;2.88;;;4.60;99.90;;;;;;5074731;28;20173;-44
2021/12/12 01:40:23;;;;;;;8.48;3.30;;;4.50;99.90;;;;;;5074614;28;20185;-46
2021/12/12 01:43:25;;;;;;;8.88;2.88;;;4.60;99.90;;;;;;5074596;28;20162;-44
2021/12/12 01:45:56;;;;;;;5.35;3.30;;;4.60;99.90;;;;;;5074490;28;20193;-45
2021/12/12 01:48:48;;;;;;;9.15;3.30;;;4.50;99.90;;;;;;5074755;28;20185;-47
2021/12/12 01:51:15;;;;;;;14.45;4.38;;;4.60;99.90;;;;;;5073897;28;20229;-46
2021/12/12 01:53:45;;;;;;;7.20;3.38;;;4.60;99.90;;;;;;5074408;28;20163;-45
2021/12/12 01:56:18;;;;;;;6.65;3.13;;;4.60;99.90;;;;;;5074434;28;20162;-46
2021/12/12 01:58:46;;;;;;;9.68;3.30;;;4.70;99.90;;;;;;5074627;28;20181;-46
2021/12/12 02:01:16;;;;;;;7.65;3.72;;;4.70;99.90;;;;;;5074304;28;20177;-48
2021/12/12 02:03:51;;;;;;;5.03;3.00;;;4.70;99.90;;;;;;5074337;28;20166;-48
2021/12/12 02:06:19;;;;;;;5.97;3.03;;;4.70;99.90;;;;;;5074186;28;20645;-45
2021/12/12 02:08:48;;;;;;;7.40;3.42;;;4.70;99.90;;;;;;5074040;28;20165;-48
2021/12/12 02:11:21;;;;;;;10.18;3.35;;;4.70;99.90;;;;;;5074020;28;20205;-46
2021/12/12 02:13:51;;;;;;;7.45;3.35;;;4.70;99.90;;;;;;5074465;28;20182;-49
2021/12/12 02:16:19;;;;;;;9.75;5.07;;;4.80;99.90;;;;;;5074263;28;20176;-49
2021/12/12 02:18:49;;;;;;;7.65;2.88;;;4.80;99.90;;;;;;5074231;28;20174;-46
2021/12/12 02:21:24;;;;;;;11.85;4.47;;;4.80;99.90;;;;;;5074215;28;20261;-47
2021/12/12 02:35:16;;;;;;;8.43;4.93;;;4.90;99.90;;;;;;5073945;28;20652;-48
2021/12/12 02:37:43;;;;;;;8.02;3.63;;;5.00;99.90;;;;;;5073895;28;20204;-47
2021/12/12 02:40:15;;;;;;;7.18;3.63;;;5.00;99.90;;;;;;5073681;28;20233;-49
2021/12/12 02:42:42;;;;;;;8.68;3.70;;;5.10;99.90;;;;;;5073526;28;20218;-49
2021/12/12 02:45:09;;;;;;;7.07;3.00;;;5.10;99.90;;;;;;5073392;28;20240;-48
2021/12/12 02:47:35;;;;;;;8.75;3.40;;;5.10;99.90;;;;;;5073669;28;20208;-49
2021/12/12 02:50:18;;;;;;;9.98;3.38;;;5.10;99.90;;;;;;5073234;28;20290;-49
2021/12/12 02:52:52;;;;;;;9.07;3.90;;;5.10;99.90;;;;;;5073529;28;20174;-48
2021/12/12 02:55:25;;;;;;;15.38;4.40;;;5.20;99.90;;;;;;5073165;28;20162;-47
2021/12/12 02:57:53;;;;;;;6.95;3.50;;;5.10;99.90;;;;;;5073341;28;20166;-47
2021/12/12 03:00:23;;;;;;;9.18;3.55;;;5.10;99.90;;;;;;5073227;28;20166;-47
2021/12/12 03:02:56;;;;;;;5.53;2.90;;;5.10;99.90;;;;;;5071856;28;20223;-47
2021/12/12 03:05:23;;;;;;;10.35;3.03;;;5.10;99.90;;;;;;5073449;28;20166;-47
2021/12/12 03:07:49;;;;;;;10.88;3.65;;;5.10;99.90;;;;;;5073022;28;20162;-47
2021/12/12 03:10:22;;;;;;;8.30;3.22;;;5.10;99.90;;;;;;5072791;28;20222;-47
2021/12/12 03:12:48;;;;;;;7.53;3.38;;;5.10;99.90;;;;;;5073024;28;20170;-48
2021/12/12 03:15:18;;;;;;;11.27;3.13;;;5.20;99.90;;;;;;5071573;28;20177;-47
2021/12/12 03:17:46;;;;;;;7.43;3.20;;;5.10;99.90;;;;;;5072877;28;20166;-50
2021/12/12 03:20:23;;;;;;;8.77;3.42;;;5.20;99.90;;;;;;5073020;28;20194;-49
2021/12/12 03:22:56;;;;;;;6.63;3.47;;;5.20;99.90;;;;;;5072652;28;20534;-47
2021/12/12 03:25:22;;;;;;;9.85;3.45;;;5.30;99.90;;;;;;5073040;28;20243;-50
2021/12/12 03:27:47;;;;;;;8.25;2.92;;;5.30;99.90;;;;;;5072652;28;20203;-48
2021/12/12 03:30:14;;;;;;;8.40;3.00;;;5.40;99.90;;;;;;5072405;28;20204;-50
2021/12/12 03:32:39;;;;;;;7.50;3.13;;;5.40;99.90;;;;;;5072543;28;20193;-50
2021/12/12 03:35:06;;;;;;;11.57;3.03;;;5.50;99.90;;;;;;5071059;28;20161;-49
2021/12/12 03:37:35;;;;;;;5.57;2.67;;;5.50;99.90;;;;;;5071944;28;20540;-49
2021/12/12 03:40:26;;;;;;;11.15;3.55;;;5.50;99.90;;;;;;5072543;28;20177;-47
2021/12/12 03:42:54;;;;;;;10.90;3.25;;;5.60;99.90;;;;;;5072745;28;20185;-50
2021/12/12 03:45:21;;;;;;;5.32;2.85;;;5.60;99.90;;;;;;5072656;28;20169;-49
2021/12/12 03:47:53;;;;;;;9.07;3.05;;;5.60;99.90;;;;;;5072279;28;20197;-49
2021/12/12 03:50:30;;;;;;;11.05;3.78;;;5.60;99.90;;;;;;5072193;28;20219;-46
2021/12/12 03:52:56;;;;;;;10.18;4.15;;;5.60;99.90;;;;;;5072264;28;20257;-46
2021/12/12 03:55:23;;;;;;;13.52;6.63;;;5.60;99.90;;;;;;5072562;28;20596;-48
2021/12/12 03:57:49;;;;;;;17.50;7.15;;;5.60;99.90;;;;;;5072152;28;20168;-49
2021/12/12 04:00:21;;;;;;;13.05;4.80;;;5.50;99.90;;;;;;5072174;28;20177;-48
2021/12/12 04:02:47;;;;;;;7.43;2.78;;;5.50;99.90;;;;;;5072033;28;20241;-47
2021/12/12 04:05:13;;;;;;;9.82;3.40;;;5.50;99.90;;;;;;5072097;28;20166;-48
2021/12/12 04:07:39;;;;;;;7.50;2.88;;;5.50;99.90;;;;;;5072008;28;20177;-48
2021/12/12 04:10:07;;;;;;;16.88;4.72;;;5.50;99.90;;;;;;5071790;28;20229;-48
2021/12/12 04:12:32;;;;;;;9.27;3.33;;;5.50;99.90;;;;;;5072214;28;20174;-47
2021/12/12 04:14:58;;;;;;;5.63;3.42;;;5.50;99.90;;;;;;5071989;28;20173;-48
2021/12/12 04:17:29;;;;;;;11.40;3.78;;;5.50;99.90;;;;;;5072230;28;20173;-48
2021/12/12 04:19:57;;;;;;;10.85;3.42;;;5.50;99.90;;;;;;5072339;28;20158;-48
2021/12/12 04:22:23;;;;;;;12.10;4.10;;;5.40;99.90;;;;;;5072267;28;20173;-46
2021/12/12 04:24:52;;;;;;;11.68;3.30;;;5.40;99.90;;;;;;5072228;28;20660;-49
2021/12/12 04:27:19;;;;;;;10.60;3.92;;;5.40;99.90;;;;;;5071816;28;20174;-48
2021/12/12 04:29:48;;;;;;;9.70;3.42;;;5.40;99.90;;;;;;5071888;28;20661;-48
2021/12/12 04:32:19;;;;;;;14.77;3.58;;;5.40;99.90;;;;;;5072107;28;20282;-48
2021/12/12 04:34:55;;;;;;;9.60;3.58;;;5.40;99.90;;;;;;5072058;28;20249;-46
2021/12/12 04:37:22;;;;;;;8.68;3.33;;;5.50;99.90;;;;;;5072170;28;20173;-46
2021/12/12 04:39:53;;;;;;;6.75;3.38;;;5.50;99.90;;;;;;5071756;28;20196;-49
2021/12/12 04:42:30;;;;;;;10.30;3.80;;;5.50;99.90;;;;;;5071952;28;20169;-47
2021/12/12 04:45:21;;;;;;;10.10;3.10;;;5.40;99.90;;;;;;5072253;28;20235;-49
2021/12/12 04:51:03;;;;;;;12.25;3.63;;;5.50;99.90;;;;;;5076053;28;20212;-49
2021/12/12 04:53:41;;;;;;;12.13;3.97;;;5.50;99.90;;;;;;5075647;28;20161;-48
2021/12/12 04:56:25;;;;;;;9.75;3.85;;;5.50;99.90;;;;;;5075593;28;20228;-48
2021/12/12 04:59:28;;;;;;;6.40;3.28;;;5.50;99.90;;;;;;5075605;28;20158;-48
2021/12/12 05:02:30;;;;;;;8.02;3.45;;;5.50;99.90;;;;;;5074532;28;20633;-47
2021/12/12 05:05:06;;;;;;;6.55;2.88;;;5.50;99.90;;;;;;5075996;28;20600;-47
2021/12/12 05:07:58;;;;;;;9.82;3.63;;;5.50;99.90;;;;;;5075312;28;20154;-49
2021/12/12 05:10:36;;;;;;;9.65;3.78;;;5.50;99.90;;;;;;5075412;28;20309;-48
2021/12/12 05:13:08;;;;;;;9.27;3.75;;;5.50;99.90;;;;;;5075197;28;20252;-49
2021/12/12 05:15:56;;;;;;;9.40;3.80;;;5.50;99.90;;;;;;5075247;28;20166;-49
2021/12/12 05:18:29;;;;;;;6.35;3.35;;;5.50;99.90;;;;;;5075466;28;20164;-48
2021/12/12 05:21:09;;;;;;;7.97;3.55;;;5.50;99.90;;;;;;5075228;28;20585;-48
2021/12/12 05:23:36;;;;;;;9.57;3.85;;;5.50;99.90;;;;;;5075017;28;20170;-48
2021/12/12 05:26:01;;;;;;;8.88;3.47;;;5.50;99.90;;;;;;5075228;28;20170;-47
2021/12/12 05:28:35;;;;;;;8.52;3.90;;;5.50;99.90;;;;;;5074958;28;20266;-47
2021/12/12 05:31:04;;;;;;;8.45;3.70;;;5.50;99.90;;;;;;5073537;28;20734;-48
2021/12/12 05:33:30;;;;;;;11.70;3.97;;;5.50;99.90;;;;;;5075031;28;20204;-47
2021/12/12 05:35:57;;;;;;;11.20;3.92;;;5.50;99.90;;;;;;5075080;28;20173;-45
2021/12/12 05:38:24;;;;;;;14.60;4.57;;;5.50;99.90;;;;;;5075121;28;20169;-48
2021/12/12 05:40:51;;;;;;;14.73;4.45;;;5.50;99.90;;;;;;5074762;28;20681;-46
2021/12/12 05:43:17;;;;;;;7.80;4.15;;;5.50;99.90;;;;;;5074657;28;20219;-48
2021/12/12 05:45:45;;;;;;;9.93;3.80;;;5.50;99.90;;;;;;5074558;28;20169;-48
2021/12/12 05:48:11;;;;;;;16.95;4.65;;;5.50;99.90;;;;;;5074587;28;20174;-48
2021/12/12 05:50:39;;;;;;;11.20;4.10;;;5.50;99.90;;;;;;5074497;28;20210;-46
2021/12/12 05:53:05;;;;;;;10.38;3.85;;;5.50;99.90;;;;;;5074482;28;20247;-48
2021/12/12 05:55:34;;;;;;;10.30;3.95;;;5.50;99.90;;;;;;5073174;28;20307;-48
2021/12/12 05:58:04;;;;;;;11.07;4.05;;;5.50;99.90;;;;;;5074635;28;20166;-49
2021/12/12 06:00:33;;;;;;;12.20;4.18;;;5.50;99.90;;;;;;5073648;28;20176;-48
2021/12/12 06:03:00;;;;;;;9.73;4.40;;;5.50;99.90;;;;;;5074314;28;20162;-49
2021/12/12 06:05:27;;;;;;;11.57;3.80;;;5.60;99.90;;;;;;5074585;28;20258;-49
2021/12/12 06:07:55;;;;;;;12.45;4.32;;;5.60;99.90;;;;;;5074802;28;20523;-49
2021/12/12 06:10:21;;;;;;;9.88;4.75;;;5.60;99.90;;;;;;5073961;28;20583;-50
2021/12/12 06:12:47;;;;;;;12.63;4.40;;;5.60;99.90;;;;;;5074134;28;20170;-48
2021/12/12 06:15:16;;;;;;;9.95;4.43;;;5.60;99.90;;;;;;5073182;28;20219;-50
2021/12/12 06:17:43;;;;;;;11.18;3.90;;;5.60;99.90;;;;;;5074102;28;20162;-49
2021/12/12 06:20:10;;;;;;;10.63;4.65;;;5.60;99.90;;;;;;5073966;28;20174;-49
2021/12/12 06:22:36;;;;;;;9.10;3.75;;;5.50;99.90;;;;;;5073977;28;20193;-49
2021/12/12 06:25:04;;;;;;;11.73;4.68;;;5.60;99.90;;;;;;5073930;28;20158;-46
2021/12/12 06:27:30;;;;;;;6.47;4.00;;;5.60;99.90;;;;;;5074055;28;20166;-47
2021/12/12 06:29:55;;;;;;;18.88;4.43;;;5.60;99.90;;;;;;5074003;28;20588;-49
2021/12/12 06:32:22;;;;;;;12.18;3.92;;;5.60;99.90;;;;;;5074107;28;20265;-49
2021/12/12 06:34:49;;;;;;;10.48;3.88;;;5.60;99.90;;;;;;5073995;28;20169;-48
2021/12/12 06:37:16;;;;;;;11.70;4.47;;;5.60;99.90;;;;;;5072420;28;20555;-49
2021/12/12 06:39:44;;;;;;;13.32;3.85;;;5.60;99.90;;;;;;5073612;28;20158;-49
2021/12/12 06:42:11;;;;;;;16.02;4.97;;;5.70;99.90;;;;;;5073540;28;20177;-49
2021/12/12 06:44:39;;;;;;;9.98;3.92;;;5.60;99.90;;;;;;5073583;28;20162;-49
2021/12/12 06:47:08;;;;;;;7.75;3.90;;;5.60;99.90;;;;;;5073540;28;20170;-49
2021/12/12 06:49:34;;;;;;;7.32;3.58;;;5.60;99.90;;;;;;5073673;28;20170;-49
2021/12/12 06:52:03;;;;;;;6.40;3.92;;;5.60;99.90;;;;;;5073328;28;20239;-49
2021/12/12 06:54:30;;;;;;;10.68;4.00;;;5.60;99.90;;;;;;5073410;28;20158;-49
2021/12/12 06:57:00;;;;;;;6.68;3.42;;;5.60;99.90;;;;;;5073830;28;20196;-49
2021/12/12 06:59:28;;;;;;;9.57;3.92;;;5.60;99.90;;;;;;5073587;28;20169;-48
2021/12/12 07:01:55;;;;;;;10.13;3.10;;;5.60;99.90;;;;;;5073470;28;20170;-48
2021/12/12 07:04:21;;;;;;;9.88;3.30;;;5.60;99.90;;;;;;5073258;28;20596;-50
2021/12/12 07:06:52;;;;;;;8.52;3.67;;;5.60;99.90;;;;;;5072995;28;20663;-46
2021/12/12 07:09:18;;;;;;;10.73;4.35;;;5.60;99.90;;;;;;5072836;28;20210;-45
2021/12/12 07:11:45;;;;;;;8.50;3.33;;;5.60;99.90;;;;;;5072893;28;20176;-46
2021/12/12 07:14:14;;;;;;;6.68;3.90;;;5.60;99.90;;;;;;5072572;28;20166;-46
2021/12/12 07:16:41;;;;;;;8.55;3.28;;;5.60;99.90;;;;;;5072809;28;20158;-46
2021/12/12 07:19:07;;;;;;;5.18;3.00;;;5.60;99.90;;;;;;5072920;28;20164;-46
2021/12/12 07:21:32;;;;;;;11.18;4.45;;;5.70;99.90;;;;;;5072777;28;20173;-48
2021/12/12 07:24:00;;;;;;;6.78;3.58;;;5.70;99.90;;;;;;5072739;28;20161;-46
2021/12/12 07:26:27;;;;;;;4.82;3.35;;;5.70;99.90;;;;;;5072981;28;20657;-47
2021/12/12 07:28:57;;;;;;;7.72;3.25;;;5.70;99.90;;;;;;5073013;28;20299;-46
2021/12/12 07:31:26;;;;;;;5.63;3.03;;;5.80;99.90;;;;;;5072960;28;20278;-46
2021/12/12 07:33:55;;;;;;;7.47;3.00;;;5.80;99.90;;;;;;5072993;28;20519;-48
2021/12/12 07:36:22;;;;;;;5.72;3.42;;;5.80;99.90;;;;;;5072574;28;20165;-47
2021/12/12 07:38:54;;;;;;;4.88;3.30;;;5.90;99.90;;;;;;5072718;28;20170;-47
2021/12/12 07:41:23;;;;;;;5.43;2.85;;;5.80;99.90;;;;;;5072453;28;20186;-47
2021/12/12 07:43:48;;;;;;;6.55;3.38;;;5.90;99.90;;;;;;5072284;28;20169;-48
2021/12/12 07:46:14;;;;;;;5.40;2.78;;;5.90;99.90;;;;;;5072299;28;20162;-47
2021/12/12 07:48:43;;;;;;;4.57;2.80;;;6.00;99.90;;;;;;5072141;28;20248;-46
2021/12/12 07:51:09;;;;;;;9.45;4.43;;;5.90;99.90;;;;;;5071972;28;20213;-46
2021/12/12 07:53:35;;;;;;;5.82;3.72;;;6.00;99.90;;;;;;5072422;28;20170;-48
2021/12/12 07:56:02;;;;;;;5.70;2.70;;;6.00;99.90;;;;;;5072420;28;20577;-46
2021/12/12 07:58:28;;;;;;;6.20;2.65;;;6.10;99.90;;;;;;5072233;28;20166;-48
2021/12/12 08:00:56;;;;;;;5.28;3.03;;;6.00;99.90;;;;;;5072016;28;20219;-49
2021/12/12 08:03:25;;;;;;;6.70;3.75;;;6.00;99.90;;;;;;5072201;28;20475;-47
2021/12/12 08:05:51;;;;;;;8.65;4.65;;;6.10;99.90;;;;;;5072074;28;20177;-49
2021/12/12 08:08:17;;;;;;;7.40;3.55;;;6.10;99.90;;;;;;5071936;28;20193;-49
2021/12/12 08:10:45;;;;;;;4.30;2.88;;;6.10;99.90;;;;;;5071667;28;20225;-49
2021/12/12 08:13:13;;;;;;;5.38;2.90;;;6.10;99.90;;;;;;5071776;28;20187;-48
2021/12/12 08:15:39;;;;;;;16.90;9.15;;;6.20;99.90;;;;;;5071844;28;20291;-48
2021/12/12 08:18:09;;;;;;;23.52;10.95;;;6.20;99.90;;;;;;5071972;28;20521;-49
2021/12/12 08:20:35;;;;;;;7.18;4.15;;;6.20;99.90;;;;;;5072116;28;20178;-47
2021/12/12 08:23:02;;;;;;;28.08;12.93;;;6.20;99.90;;;;;;5071601;28;20220;-49
2021/12/12 08:25:28;;;;;;;21.35;9.68;;;6.10;99.90;;;;;;5071879;28;20178;-48
2021/12/12 08:28:00;;;;;;;11.75;5.90;;;6.10;99.90;;;;;;5070865;28;20257;-48
2021/12/12 08:30:26;;;;;;;14.43;7.85;;;6.10;99.90;;;;;;5072363;28;20275;-49
2021/12/12 08:32:52;;;;;;;6.20;3.63;;;6.10;99.90;;;;;;5072638;28;20173;-49
2021/12/12 08:35:20;;;;;;;7.22;3.53;;;6.20;99.90;;;;;;5071935;28;20279;-49
2021/12/12 08:37:49;;;;;;;4.30;2.97;;;6.20;99.90;;;;;;5071881;28;20154;-49
2021/12/12 08:40:21;;;;;;;30.95;12.93;;;6.30;99.90;;;;;;5071985;28;20564;-50
2021/12/12 08:42:51;;;;;;;12.85;4.88;;;6.30;99.90;;;;;;5072054;28;20185;-47
2021/12/12 08:45:26;;;;;;;10.27;4.60;;;6.30;99.90;;;;;;5071799;28;20170;-47
2021/12/12 08:47:52;;;;;;;6.00;3.63;;;6.20;99.90;;;;;;5072041;28;20170;-49
2021/12/12 08:50:25;;;;;;;10.43;5.25;;;6.30;99.90;;;;;;5071688;28;20197;-47
2021/12/12 08:52:52;;;;;;;9.55;4.53;;;6.40;99.90;;;;;;5072053;28;20166;-49
2021/12/12 08:55:22;;;;;;;11.18;4.65;;;6.40;99.90;;;;;;5071886;28;20513;-45
2021/12/12 08:58:04;;;;;;;22.23;9.32;;;6.40;99.90;;;;;;5071637;28;20594;-49
2021/12/12 09:00:37;;;;;;;41.85;18.98;;;6.40;99.90;;;;;;5071558;28;20204;-48
2021/12/12 09:03:04;;;;;;;26.88;12.00;;;6.40;99.90;;;;;;5071590;28;20650;-46
2021/12/12 09:05:33;;;;;;;15.70;7.10;;;6.40;99.90;;;;;;5070867;28;20182;-47
2021/12/12 09:08:31;;;;;;;10.30;6.15;;;6.40;99.90;;;;;;5071232;28;20166;-46
2021/12/12 09:11:05;;;;;;;31.73;14.82;;;6.50;99.90;;;;;;5070993;28;20248;-47
2021/12/12 09:13:42;;;;;;;48.30;18.45;;;6.60;99.90;;;;;;5071503;28;20295;-51
2021/12/12 09:16:15;;;;;;;13.05;6.20;;;6.60;99.90;;;;;;5071348;28;20256;-48
2021/12/12 09:18:52;;;;;;;21.00;7.15;;;6.60;99.90;;;;;;5071286;28;20170;-50
2021/12/12 09:21:25;;;;;;;6.15;3.85;;;6.60;99.90;;;;;;5071348;28;20162;-49
2021/12/12 09:24:04;;;;;;;10.18;4.82;;;6.70;99.90;;;;;;5071561;28;20253;-50
2021/12/12 09:26:31;;;;;;;7.00;3.28;;;6.70;99.90;;;;;;5071590;28;20170;-50
2021/12/12 09:29:10;;;;;;;4.05;2.85;;;6.80;99.90;;;;;;5071537;28;20541;-50
2021/12/12 09:31:42;;;;;;;4.68;2.22;;;6.90;99.90;;;;;;5071491;28;20288;-50
2021/12/12 09:34:10;;;;;;;6.57;2.55;;;7.00;99.90;;;;;;5071844;28;20157;-50
2021/12/12 09:36:54;;;;;;;4.53;2.90;;;7.00;99.90;;;;;;5074800;28;20223;-50
2021/12/12 09:39:25;;;;;;;6.00;3.58;;;7.10;99.90;;;;;;5074778;28;20622;-47
2021/12/12 09:42:03;;;;;;;7.53;3.38;;;7.10;99.90;;;;;;5074677;28;20602;-48
2021/12/12 09:45:11;;;;;;;12.88;4.72;;;7.10;99.90;;;;;;5074449;28;20249;-49
2021/12/12 09:51:15;;;;;;;5.70;3.40;;;7.20;99.90;;;;;;5074789;28;20206;-48
2021/12/12 09:54:09;;;;;;;9.82;5.03;;;7.20;99.90;;;;;;5074440;28;20166;-49
2021/12/12 09:57:00;;;;;;;7.47;4.22;;;7.20;99.90;;;;;;5074466;28;20196;-49
2021/12/12 10:00:02;;;;;;;7.05;3.83;;;7.30;99.90;;;;;;5074747;28;20169;-49
2021/12/12 10:03:13;;;;;;;7.93;4.38;;;7.30;99.90;;;;;;5074292;28;20572;-49
2021/12/12 10:05:50;;;;;;;7.15;4.00;;;7.30;99.90;;;;;;5074140;28;20186;-48
2021/12/12 10:08:55;;;;;;;12.18;7.38;;;7.40;99.90;;;;;;5074000;28;20173;-48
2021/12/12 10:11:32;;;;;;;10.77;6.05;;;7.50;99.90;;;;;;5074165;28;20209;-47
2021/12/12 10:14:07;;;;;;;14.07;8.20;;;7.40;99.90;;;;;;5073844;28;20165;-49
2021/12/12 10:16:43;;;;;;;6.45;4.70;;;7.50;99.90;;;;;;5074154;28;20166;-48
2021/12/12 10:19:31;;;;;;;7.45;3.40;;;7.50;99.90;;;;;;5074026;28;20157;-48
2021/12/12 10:22:13;;;;;;;5.95;4.28;;;7.60;99.90;;;;;;5073982;28;20174;-46
2021/12/12 10:25:04;;;;;;;6.25;3.47;;;7.60;99.90;;;;;;5074003;28;20173;-48
2021/12/12 10:27:49;;;;;;;12.65;5.32;;;7.50;99.90;;;;;;5073765;28;20185;-48
2021/12/12 10:30:24;;;;;;;16.30;5.88;;;7.50;99.90;;;;;;5073695;28;20248;-48
2021/12/12 10:33:07;;;;;;;17.17;7.32;;;7.50;99.90;;;;;;5073239;28;20165;-48
2021/12/12 10:35:40;;;;;;;9.25;5.43;;;7.50;99.90;;;;;;5073836;28;20187;-47
2021/12/12 10:38:28;;;;;;;22.35;10.13;;;7.60;99.90;;;;;;5073511;28;20169;-47
2021/12/12 10:41:06;;;;;;;19.55;9.38;;;7.60;99.90;;;;;;5073908;28;20166;-48
2021/12/12 10:43:45;;;;;;;18.30;7.97;;;7.60;99.90;;;;;;5073106;28;20178;-48
2021/12/12 10:46:20;;;;;;;26.13;13.25;;;7.60;99.90;;;;;;5073215;28;20166;-47
2021/12/12 10:49:02;;;;;;;21.08;13.07;;;7.60;99.90;;;;;;5073232;28;20162;-48
2021/12/12 10:51:34;;;;;;;29.30;18.95;;;7.70;99.90;;;;;;5073006;28;20206;-47
2021/12/12 10:54:02;;;;;;;25.05;18.98;;;7.70;99.90;;;;;;5072948;28;20159;-50
2021/12/12 10:56:41;;;;;;;18.65;13.50;;;7.70;99.90;;;;;;5072848;28;20162;-48
2021/12/12 10:59:46;;;;;;;14.43;7.60;;;7.80;99.90;;;;;;5072810;28;20169;-48
2021/12/12 11:02:16;;;;;;;15.70;9.75;;;7.90;99.90;;;;;;5073153;28;20181;-48
2021/12/12 11:05:00;;;;;;;10.10;5.15;;;7.90;99.90;;;;;;5073003;28;20162;-48
2021/12/12 11:07:36;;;;;;;4.20;2.30;;;8.00;99.90;;;;;;5070636;28;20173;-48
2021/12/12 11:10:07;;;;;;;6.88;1.95;;;8.00;99.90;;;;;;5072413;28;20226;-49
2021/12/12 11:12:42;;;;;;;5.93;1.90;;;8.10;99.90;;;;;;5072595;28;20178;-48
2021/12/12 11:15:19;;;;;;;5.60;2.10;;;8.10;99.90;;;;;;5072357;28;20162;-49
2021/12/12 11:17:58;;;;;;;6.95;2.13;;;8.20;99.90;;;;;;5072407;28;20223;-49
2021/12/12 11:20:32;;;;;;;5.82;3.17;;;8.20;99.90;;;;;;5073110;28;20225;-49
2021/12/12 11:23:05;;;;;;;4.78;2.78;;;8.60;99.90;;;;;;5065645;28;20166;-48
2021/12/12 11:25:35;;;;;;;48.60;26.33;;;8.30;99.90;;;;;;5063774;28;20170;-47
2021/12/12 11:28:19;;;;;;;16.20;6.88;;;8.30;99.90;;;;;;5072043;28;20260;-47
2021/12/12 11:30:51;;;;;;;9.20;4.40;;;8.30;99.90;;;;;;5070331;28;20666;-47
2021/12/12 11:33:19;;;;;;;5.97;2.50;;;8.30;99.90;;;;;;5071771;28;20162;-47
2021/12/12 11:35:52;;;;;;;6.32;2.00;;;8.40;99.90;;;;;;5071860;28;20649;-49
2021/12/12 11:38:30;;;;;;;6.18;2.15;;;8.50;99.90;;;;;;5071767;28;20161;-48
2021/12/12 11:41:20;;;;;;;5.03;1.90;;;8.50;99.90;;;;;;5071723;28;20161;-47
2021/12/12 11:43:58;;;;;;;6.57;1.90;;;8.60;99.90;;;;;;5070647;28;20525;-47
2021/12/12 11:46:29;;;;;;;6.65;1.80;;;8.60;99.90;;;;;;5070553;28;20162;-49
2021/12/12 11:49:02;;;;;;;3.05;1.58;;;8.60;99.90;;;;;;5070488;28;20162;-50
2021/12/12 11:51:32;;;;;;;5.68;2.40;;;8.60;99.90;;;;;;5069866;28;20255;-48
2021/12/12 11:54:04;;;;;;;9.20;2.22;;;8.60;99.90;;;;;;5070277;28;20216;-45
2021/12/12 11:56:45;;;;;;;6.05;1.85;;;8.70;99.90;;;;;;5069320;28;20652;-47
2021/12/12 12:00:09;;;;;;;7.43;2.20;;;8.70;99.90;;;;;;5067183;28;20181;-49
2021/12/12 12:03:04;;;;;;;5.40;2.13;;;8.70;99.90;;;;;;5019988;28;20182;-48
2021/12/12 12:05:38;;;;;;;4.60;2.10;;;8.70;99.90;;;;;;5055036;28;20210;-48
2021/12/12 12:08:19;;;;;;;7.00;2.40;;;8.70;99.90;;;;;;5070191;28;20216;-46
2021/12/12 12:11:26;;;;;;;6.18;2.40;;;8.70;99.90;;;;;;5069536;28;20278;-47
2021/12/12 12:14:12;;;;;;;4.07;2.03;;;8.70;99.90;;;;;;5070291;28;20176;-49
2021/12/12 12:17:08;;;;;;;7.72;2.20;;;8.70;99.90;;;;;;5070030;28;20162;-48
2021/12/12 12:20:04;;;;;;;3.55;1.80;;;8.80;99.90;;;;;;5069790;28;20177;-48
2021/12/12 12:22:59;;;;;;;5.45;1.98;;;8.70;99.90;;;;;;5050155;28;20759;-48
2021/12/12 12:26:50;;;;;;;4.18;1.50;;;8.80;99.90;;;;;;5051286;28;20178;-47
2021/12/12 12:28:41;;;;;;;2.75;1.20;;;8.80;99.90;;;;;;5051295;28;20174;-47
2021/12/12 12:31:33;;;;;;;2.40;1.38;;;8.80;99.90;;;;;;5050987;28;20696;-46
2021/12/12 12:34:35;;;;;;;4.78;1.60;;;8.80;99.90;;;;;;5035227;28;20179;-48
2021/12/12 12:37:38;;;;;;;2.45;1.40;;;8.80;99.90;;;;;;5050731;28;20174;-48
2021/12/12 12:40:38;;;;;;;3.83;2.20;;;8.80;99.90;;;;;;5050852;28;20177;-46
2021/12/12 12:43:41;;;;;;;4.47;2.22;;;8.80;99.90;;;;;;5065246;28;20578;-46
2021/12/12 12:46:44;;;;;;;3.53;1.60;;;8.80;99.90;;;;;;5071003;28;20239;-46
2021/12/12 12:49:35;;;;;;;1.92;1.73;;;8.90;99.90;;;;;;5064997;28;20656;-49
2021/12/12 12:52:38;;;;;;;2.90;1.58;;;8.90;99.90;;;;;;5071147;28;20232;-46
2021/12/12 12:55:54;;;;;;;2.75;1.70;;;8.90;99.90;;;;;;5070829;28;20195;-48
2021/12/12 12:58:25;;;;;;;2.90;1.63;;;8.90;99.90;;;;;;5047982;28;20178;-48
2021/12/12 13:00:56;;;;;;;1.85;1.20;;;8.90;99.90;;;;;;5069165;28;20661;-49
2021/12/12 13:03:42;;;;;;;2.55;1.63;;;8.90;99.90;;;;;;5071002;28;20165;-49
2021/12/12 13:06:45;;;;;;;3.25;1.83;;;8.90;99.90;;;;;;5071291;28;20170;-48
2021/12/12 13:09:16;;;;;;;3.40;1.98;;;8.90;99.90;;;;;;5073442;28;20252;-49
2021/12/12 13:12:09;;;;;;;3.33;1.55;;;8.90;99.90;;;;;;5075206;28;20198;-47
2021/12/12 13:14:49;;;;;;;2.03;1.40;;;8.90;99.90;;;;;;5075491;28;20555;-48
2021/12/12 13:17:31;;;;;;;1.70;1.55;;;8.90;99.90;;;;;;5075480;28;20244;-49
2021/12/12 13:20:09;;;;;;;2.63;1.60;;;8.90;99.90;;;;;;5075087;28;20417;-46
2021/12/12 13:22:50;;;;;;;1.70;1.60;;;8.90;99.90;;;;;;5072916;28;20711;-48
2021/12/12 13:25:22;;;;;;;6.32;1.95;;;8.90;99.90;;;;;;5059809;28;20206;-49
2021/12/12 13:28:17;;;;;;;5.22;1.50;;;8.90;99.90;;;;;;5053846;28;20226;-49
2021/12/12 13:30:48;;;;;;;6.00;2.13;;;8.80;99.90;;;;;;5072516;28;20216;-46
2021/12/12 13:33:42;;;;;;;4.47;1.60;;;8.80;99.90;;;;;;5080685;28;20199;-48
2021/12/12 13:36:27;;;;;;;3.90;2.00;;;8.90;99.90;;;;;;5086894;28;20174;-49
2021/12/12 13:39:10;;;;;;;2.13;1.77;;;8.90;99.90;;;;;;5054544;28;20155;-49
2021/12/12 13:42:09;;;;;;;1.60;1.38;;;8.90;99.90;;;;;;5053782;28;20206;-48
2021/12/12 13:44:52;;;;;;;2.20;1.50;;;8.80;99.90;;;;;;5053488;28;20633;-46
2021/12/12 13:47:41;;;;;;;2.85;2.28;;;8.80;99.90;;;;;;5054048;28;20170;-46
2021/12/12 13:50:28;;;;;;;1.73;1.60;;;8.90;99.90;;;;;;5054019;28;20552;-46